Time;durP1;ratioP1;P1;durP2;ratioP2;P2;SDS_P1;SDS_P2;PMS_P1;PMS_P2;Temp;Humidity;BMP_temperature;BMP_pressure;BME280_temperature;BME280_humidity;BME280_pressure;Samples;Min_cycle;Max_cycle;Signal;HPM_P1;HPM_P2
2023/11/28 00:00:57;;;;;;;5.70;0.50;;;4.20;99.90;;;;;;5048517;28;20525;-65
2023/11/28 00:03:25;;;;;;;6.37;0.70;;;4.20;99.90;;;;;;5046350;28;20466;-65
2023/11/28 00:05:53;;;;;;;5.43;0.30;;;4.20;99.90;;;;;;5048081;28;20480;-65
2023/11/28 00:08:21;;;;;;;5.60;0.47;;;4.10;99.90;;;;;;5048164;28;20448;-66
2023/11/28 00:10:49;;;;;;;5.90;0.70;;;4.10;99.90;;;;;;5047689;28;20468;-65
2023/11/28 00:13:19;;;;;;;5.60;0.43;;;4.10;99.90;;;;;;5048285;28;20452;-65
2023/11/28 00:15:47;;;;;;;5.60;0.30;;;4.20;99.90;;;;;;5047305;28;20565;-66
2023/11/28 00:18:15;;;;;;;5.60;0.40;;;4.10;99.90;;;;;;5047965;28;20708;-65
2023/11/28 00:20:43;;;;;;;5.50;0.30;;;4.10;99.90;;;;;;5047771;28;20472;-65
2023/11/28 00:23:11;;;;;;;5.50;0.40;;;4.00;99.90;;;;;;5048030;28;20992;-65
2023/11/28 00:25:40;;;;;;;5.80;0.63;;;4.00;99.90;;;;;;5047054;28;21009;-65
2023/11/28 00:28:08;;;;;;;5.53;0.37;;;4.10;99.90;;;;;;5048129;28;20514;-66
2023/11/28 00:30:38;;;;;;;5.80;0.50;;;4.10;99.90;;;;;;5049534;28;20460;-67
2023/11/28 00:33:05;;;;;;;5.90;0.60;;;4.10;99.90;;;;;;5047679;28;20456;-65
2023/11/28 00:35:33;;;;;;;5.97;0.47;;;4.10;99.90;;;;;;5047155;28;21139;-65
2023/11/28 00:38:01;;;;;;;5.83;0.43;;;4.00;99.90;;;;;;5047954;28;20448;-65
2023/11/28 00:40:31;;;;;;;5.70;0.40;;;4.10;99.90;;;;;;5047643;28;20889;-65
2023/11/28 00:42:59;;;;;;;5.57;0.40;;;4.10;99.90;;;;;;5047848;28;20509;-66
2023/11/28 00:45:28;;;;;;;5.90;1.07;;;4.20;99.90;;;;;;5047052;28;20864;-66
2023/11/28 00:47:57;;;;;;;5.77;0.50;;;4.20;99.90;;;;;;5041934;28;20556;-65
2023/11/28 00:50:26;;;;;;;5.50;0.40;;;4.20;99.90;;;;;;5047399;28;20884;-65
2023/11/28 00:52:54;;;;;;;9.20;0.40;;;4.10;99.90;;;;;;5047422;28;20468;-65
2023/11/28 00:55:23;;;;;;;5.77;0.43;;;4.10;99.90;;;;;;5046635;28;20451;-65
2023/11/28 00:57:51;;;;;;;5.50;0.40;;;4.10;99.90;;;;;;5047404;28;20449;-64
2023/11/28 01:00:19;;;;;;;5.43;0.30;;;4.10;99.90;;;;;;5047179;28;20566;-68
2023/11/28 01:02:47;;;;;;;5.53;0.43;;;4.20;99.90;;;;;;5047779;28;20485;-67
2023/11/28 01:05:18;;;;;;;6.00;0.50;;;4.20;99.90;;;;;;5046613;28;20456;-65
2023/11/28 01:07:46;;;;;;;5.57;0.40;;;4.10;99.90;;;;;;5045884;28;20433;-66
2023/11/28 01:10:14;;;;;;;5.70;0.47;;;4.20;99.90;;;;;;5045830;28;20475;-66
2023/11/28 01:12:42;;;;;;;5.50;0.60;;;4.20;99.90;;;;;;5047418;28;20452;-67
2023/11/28 01:15:10;;;;;;;5.60;0.47;;;4.20;99.90;;;;;;5049608;28;20451;-65
2023/11/28 01:17:38;;;;;;;5.60;0.40;;;4.20;99.90;;;;;;5051117;28;20480;-65
2023/11/28 01:20:08;;;;;;;5.73;0.50;;;4.10;99.90;;;;;;5050473;28;20526;-64
2023/11/28 01:22:37;;;;;;;5.70;0.40;;;4.20;99.90;;;;;;5050959;28;20453;-66
2023/11/28 01:25:06;;;;;;;5.80;0.50;;;4.20;99.90;;;;;;5048805;28;20467;-67
2023/11/28 01:27:34;;;;;;;5.50;0.40;;;4.20;99.90;;;;;;5050153;28;20457;-67
2023/11/28 01:30:03;;;;;;;5.50;0.40;;;4.30;99.90;;;;;;5049579;28;20471;-66
2023/11/28 01:32:30;;;;;;;5.60;0.40;;;4.30;99.90;;;;;;5049952;28;20451;-65
2023/11/28 01:34:59;;;;;;;6.30;0.80;;;4.30;99.90;;;;;;5049263;28;20475;-66
2023/11/28 01:37:27;;;;;;;5.50;0.40;;;4.30;99.90;;;;;;5050179;28;20495;-64
2023/11/28 01:39:56;;;;;;;5.80;0.40;;;4.30;99.90;;;;;;5049487;28;20834;-66
2023/11/28 01:42:24;;;;;;;5.50;0.40;;;4.30;99.90;;;;;;5049921;28;20541;-65
2023/11/28 01:44:52;;;;;;;6.20;0.40;;;4.30;99.90;;;;;;5048946;28;21240;-65
2023/11/28 01:47:20;;;;;;;8.13;0.40;;;4.30;99.90;;;;;;5049700;28;20443;-69
2023/11/28 01:49:48;;;;;;;5.50;0.50;;;4.40;99.90;;;;;;5048866;28;20996;-66
2023/11/28 01:52:16;;;;;;;5.57;0.47;;;4.40;99.90;;;;;;5047916;28;20453;-65
2023/11/28 01:54:46;;;;;;;5.70;0.50;;;4.30;99.90;;;;;;5044049;28;20471;-67
2023/11/28 01:57:16;;;;;;;5.60;0.47;;;4.40;99.90;;;;;;5050200;28;20495;-68
2023/11/28 01:59:46;;;;;;;5.70;0.40;;;4.40;99.90;;;;;;5049796;28;20920;-68
2023/11/28 02:02:15;;;;;;;5.60;0.43;;;4.30;99.90;;;;;;5050365;28;20817;-67
2023/11/28 02:04:44;;;;;;;6.10;0.50;;;4.50;99.90;;;;;;5049579;28;20468;-67
2023/11/28 02:07:14;;;;;;;5.90;0.40;;;4.50;99.90;;;;;;5050225;28;20526;-66
2023/11/28 02:09:42;;;;;;;5.67;0.40;;;4.50;99.90;;;;;;5050179;28;20465;-66
2023/11/28 02:12:10;;;;;;;5.60;0.50;;;4.50;99.90;;;;;;5050521;28;20468;-67
2023/11/28 02:14:44;;;;;;;6.73;0.60;;;4.50;99.90;;;;;;5049349;28;21005;-65
2023/11/28 02:17:13;;;;;;;6.10;0.50;;;4.50;99.90;;;;;;5049776;28;20490;-66
2023/11/28 02:19:41;;;;;;;5.60;0.40;;;4.60;99.90;;;;;;5051341;28;20458;-66
2023/11/28 02:22:10;;;;;;;6.53;0.40;;;4.60;99.90;;;;;;5053154;28;20485;-67
2023/11/28 02:24:41;;;;;;;5.90;0.40;;;4.60;99.90;;;;;;5049173;28;20472;-66
2023/11/28 02:27:10;;;;;;;6.50;0.50;;;4.70;99.90;;;;;;5048719;28;20477;-66
2023/11/28 02:29:40;;;;;;;5.57;0.47;;;4.60;99.90;;;;;;5048915;28;20454;-66
2023/11/28 02:32:08;;;;;;;5.57;0.50;;;4.60;99.90;;;;;;5050048;28;20441;-64
2023/11/28 02:34:36;;;;;;;5.70;0.50;;;4.70;99.90;;;;;;5048981;28;21045;-67
2023/11/28 02:37:04;;;;;;;5.50;0.40;;;4.70;99.90;;;;;;5049772;28;20587;-65
2023/11/28 02:39:32;;;;;;;5.57;0.43;;;4.70;99.90;;;;;;5049272;28;20538;-66
2023/11/28 02:42:00;;;;;;;5.50;0.40;;;4.70;99.90;;;;;;5049475;28;20471;-65
2023/11/28 02:44:29;;;;;;;7.17;0.60;;;4.70;99.90;;;;;;5048981;28;21026;-66
2023/11/28 02:46:57;;;;;;;6.37;0.50;;;4.70;99.90;;;;;;5049624;28;20466;-67
2023/11/28 02:49:25;;;;;;;5.60;0.50;;;4.70;99.90;;;;;;5048754;28;20469;-67
2023/11/28 02:51:53;;;;;;;6.10;0.50;;;4.70;99.90;;;;;;5049362;28;20476;-67
2023/11/28 02:54:21;;;;;;;5.70;0.60;;;4.80;99.90;;;;;;5048748;28;20967;-66
2023/11/28 02:56:49;;;;;;;5.90;0.70;;;4.80;99.90;;;;;;5043332;28;20907;-70
2023/11/28 02:59:17;;;;;;;5.60;0.50;;;4.80;99.90;;;;;;5047301;28;20468;-67
2023/11/28 03:01:46;;;;;;;5.60;0.40;;;4.90;99.90;;;;;;5047520;28;20522;-66
2023/11/28 03:04:14;;;;;;;5.50;0.40;;;4.80;99.90;;;;;;5046804;28;20472;-66
2023/11/28 03:06:43;;;;;;;5.90;0.60;;;4.90;99.90;;;;;;5047297;28;20428;-66
2023/11/28 03:09:11;;;;;;;5.83;0.67;;;4.90;99.90;;;;;;5047321;28;20440;-65
2023/11/28 03:11:38;;;;;;;6.20;0.60;;;4.80;99.90;;;;;;5048057;28;20463;-66
2023/11/28 03:14:07;;;;;;;5.70;0.50;;;4.80;99.90;;;;;;5047421;28;20560;-65
2023/11/28 03:16:35;;;;;;;5.83;0.50;;;4.80;99.90;;;;;;5048000;28;20495;-65
2023/11/28 03:19:04;;;;;;;5.63;0.50;;;4.90;99.90;;;;;;5048073;28;20465;-65
2023/11/28 03:21:32;;;;;;;5.70;0.57;;;4.90;99.90;;;;;;5048308;28;21077;-68
2023/11/28 03:24:00;;;;;;;5.83;0.63;;;4.90;99.90;;;;;;5048462;28;20476;-65
2023/11/28 03:26:28;;;;;;;5.70;0.43;;;4.90;99.90;;;;;;5048467;28;20535;-65
2023/11/28 03:28:56;;;;;;;5.90;0.70;;;4.90;99.90;;;;;;5048747;28;20522;-65
2023/11/28 03:31:24;;;;;;;5.87;0.70;;;4.90;99.90;;;;;;5048655;28;20969;-66
2023/11/28 03:33:52;;;;;;;5.60;0.50;;;4.90;99.90;;;;;;5047448;28;21307;-66
2023/11/28 03:36:21;;;;;;;5.60;0.40;;;4.90;99.90;;;;;;5047372;28;20471;-67
2023/11/28 03:38:49;;;;;;;5.73;0.60;;;5.00;99.90;;;;;;5047456;28;20570;-66
2023/11/28 03:41:17;;;;;;;6.47;0.50;;;4.90;99.90;;;;;;5047597;28;20460;-66
2023/11/28 03:43:45;;;;;;;5.90;0.57;;;4.90;99.90;;;;;;5047701;28;20452;-66
2023/11/28 03:46:13;;;;;;;5.60;0.50;;;4.90;99.90;;;;;;5047178;28;20885;-65
2023/11/28 03:48:41;;;;;;;5.70;0.60;;;4.90;99.90;;;;;;5047332;28;20884;-67
2023/11/28 03:51:09;;;;;;;5.87;0.57;;;4.90;99.90;;;;;;5051491;28;20488;-66
2023/11/28 03:53:38;;;;;;;5.93;0.53;;;4.90;99.90;;;;;;5047162;28;20829;-64
2023/11/28 03:56:07;;;;;;;5.80;0.50;;;4.90;99.90;;;;;;5045460;28;20452;-69
2023/11/28 03:58:36;;;;;;;6.30;0.70;;;4.90;99.90;;;;;;5042489;28;20492;-65
2023/11/28 04:01:04;;;;;;;6.40;0.70;;;4.90;99.90;;;;;;5048491;28;20459;-65
2023/11/28 04:03:32;;;;;;;6.10;0.40;;;4.90;99.90;;;;;;5048258;28;20492;-66
2023/11/28 04:06:00;;;;;;;5.90;0.50;;;4.90;99.90;;;;;;5047343;28;20461;-68
2023/11/28 04:08:28;;;;;;;6.17;0.47;;;4.90;99.90;;;;;;5047571;28;20458;-69
2023/11/28 04:10:58;;;;;;;6.77;0.50;;;5.00;99.90;;;;;;5048530;28;20464;-68
2023/11/28 04:13:26;;;;;;;5.63;0.50;;;4.90;99.90;;;;;;5048232;28;20500;-66
2023/11/28 04:15:54;;;;;;;6.10;1.77;;;4.90;99.90;;;;;;5047854;28;20461;-67
2023/11/28 04:18:22;;;;;;;5.70;0.40;;;4.90;99.90;;;;;;5047741;28;20886;-66
2023/11/28 04:20:51;;;;;;;5.53;0.40;;;4.80;99.90;;;;;;5047013;28;20467;-69
2023/11/28 04:23:19;;;;;;;5.60;0.40;;;4.90;99.90;;;;;;5047892;28;20527;-68
2023/11/28 04:25:47;;;;;;;5.67;0.40;;;4.90;99.90;;;;;;5047494;28;20612;-68
2023/11/28 04:28:17;;;;;;;5.60;0.40;;;4.80;99.90;;;;;;5047637;28;20465;-69
2023/11/28 04:30:45;;;;;;;5.80;0.50;;;4.80;99.90;;;;;;5047321;28;20533;-68
2023/11/28 04:33:13;;;;;;;5.70;0.40;;;4.90;99.90;;;;;;5047490;28;20565;-69
2023/11/28 04:35:41;;;;;;;5.70;0.40;;;4.90;99.90;;;;;;5047071;28;20469;-68
2023/11/28 04:38:09;;;;;;;5.77;0.50;;;4.90;99.90;;;;;;5047464;28;20484;-66
2023/11/28 04:40:37;;;;;;;5.73;0.50;;;4.90;99.90;;;;;;5047316;28;20670;-66
2023/11/28 04:43:05;;;;;;;5.60;0.43;;;5.00;99.90;;;;;;5047949;28;20847;-67
2023/11/28 04:45:35;;;;;;;5.60;0.50;;;5.00;99.90;;;;;;5047146;28;20831;-66
2023/11/28 04:48:03;;;;;;;5.70;0.50;;;5.00;99.90;;;;;;5047740;28;20468;-66
2023/11/28 04:50:31;;;;;;;5.53;0.50;;;4.90;99.90;;;;;;5046521;28;20489;-67
2023/11/28 04:52:59;;;;;;;5.70;0.40;;;4.90;99.90;;;;;;5047393;28;20552;-66
2023/11/28 04:55:27;;;;;;;5.53;0.37;;;4.90;99.90;;;;;;5047104;28;20469;-67
2023/11/28 04:57:55;;;;;;;5.80;0.77;;;4.90;99.90;;;;;;5047316;28;21059;-66
2023/11/28 05:00:23;;;;;;;6.07;0.50;;;4.80;99.90;;;;;;5041460;28;20464;-66
2023/11/28 05:02:52;;;;;;;6.40;0.70;;;4.80;99.90;;;;;;5047649;28;20517;-66
2023/11/28 05:05:21;;;;;;;5.60;0.47;;;4.70;99.90;;;;;;5046489;28;20468;-64
2023/11/28 05:07:48;;;;;;;5.50;0.40;;;4.70;99.90;;;;;;5045360;28;20455;-67
2023/11/28 05:10:16;;;;;;;5.80;0.50;;;4.70;99.90;;;;;;5046758;28;20467;-67
2023/11/28 05:12:44;;;;;;;5.57;0.50;;;4.70;99.90;;;;;;5046578;28;20444;-68
2023/11/28 05:15:12;;;;;;;6.30;0.70;;;4.70;99.90;;;;;;5046319;28;21039;-66
2023/11/28 05:17:40;;;;;;;5.60;0.60;;;4.70;99.90;;;;;;5047296;28;20544;-65
2023/11/28 05:20:12;;;;;;;5.60;0.53;;;4.70;99.90;;;;;;5046639;28;20965;-65
2023/11/28 05:22:40;;;;;;;6.70;1.10;;;4.80;99.90;;;;;;5047145;28;20833;-68
2023/11/28 05:25:08;;;;;;;6.10;1.00;;;4.80;99.90;;;;;;5046671;28;20513;-70
2023/11/28 05:27:36;;;;;;;6.70;1.17;;;4.90;99.90;;;;;;5047184;28;20447;-66
2023/11/28 05:30:05;;;;;;;6.20;1.03;;;4.90;99.90;;;;;;5047023;28;20459;-66
2023/11/28 05:32:33;;;;;;;6.80;1.00;;;4.90;99.90;;;;;;5047243;28;20531;-68
2023/11/28 05:35:01;;;;;;;6.80;1.50;;;4.90;99.90;;;;;;5046321;28;20509;-66
2023/11/28 05:37:30;;;;;;;6.43;1.50;;;4.90;99.90;;;;;;5047020;28;20553;-65
2023/11/28 05:39:58;;;;;;;6.20;1.20;;;4.90;99.90;;;;;;5046294;28;20502;-71
2023/11/28 05:42:27;;;;;;;6.77;1.67;;;5.00;99.90;;;;;;5046267;28;20539;-69
2023/11/28 05:44:55;;;;;;;6.70;1.70;;;5.00;99.90;;;;;;5046296;28;20479;-67
2023/11/28 05:47:23;;;;;;;6.40;1.70;;;5.00;99.90;;;;;;5046892;28;20832;-68
2023/11/28 05:49:51;;;;;;;6.90;1.77;;;4.90;99.90;;;;;;5046849;28;20498;-67
2023/11/28 05:52:20;;;;;;;7.00;2.10;;;4.90;99.90;;;;;;5047155;28;20458;-66
2023/11/28 05:54:49;;;;;;;6.90;2.00;;;4.80;99.90;;;;;;5046429;28;20459;-67
2023/11/28 05:57:19;;;;;;;7.70;2.40;;;4.80;99.90;;;;;;5046977;28;21021;-66
2023/11/28 05:59:47;;;;;;;7.30;1.87;;;4.80;99.90;;;;;;5046154;28;20572;-64
2023/11/28 06:02:15;;;;;;;7.00;1.80;;;4.80;99.90;;;;;;5049465;28;20451;-68
2023/11/28 06:04:43;;;;;;;7.87;2.60;;;4.70;99.90;;;;;;5049531;28;20455;-66
2023/11/28 06:07:11;;;;;;;7.70;2.43;;;4.70;99.90;;;;;;5050083;28;20945;-71
2023/11/28 06:09:39;;;;;;;9.17;2.37;;;4.60;99.90;;;;;;5049873;28;20456;-67
2023/11/28 06:12:09;;;;;;;7.23;2.40;;;4.60;99.90;;;;;;5051059;28;20864;-68
2023/11/28 06:14:37;;;;;;;6.50;1.20;;;4.60;99.90;;;;;;5049087;28;20919;-66
2023/11/28 06:17:05;;;;;;;7.13;2.03;;;4.50;99.90;;;;;;5049784;28;20452;-68
2023/11/28 06:19:33;;;;;;;7.60;1.93;;;4.40;99.90;;;;;;5048871;28;20491;-66
2023/11/28 06:22:01;;;;;;;7.33;1.90;;;4.40;99.90;;;;;;5050019;28;21023;-66
2023/11/28 06:24:30;;;;;;;7.03;2.00;;;4.30;99.90;;;;;;5048924;28;21257;-67
2023/11/28 06:26:58;;;;;;;7.00;1.40;;;4.30;99.90;;;;;;5049448;28;20443;-67
2023/11/28 06:29:27;;;;;;;6.37;1.07;;;4.20;99.90;;;;;;5048174;28;20538;-66
2023/11/28 06:31:56;;;;;;;6.43;1.13;;;4.00;99.90;;;;;;5048965;28;20547;-70
2023/11/28 06:34:24;;;;;;;5.93;0.70;;;3.90;99.90;;;;;;5048101;28;20436;-66
2023/11/28 06:36:53;;;;;;;6.07;0.67;;;3.70;99.90;;;;;;5048882;28;20559;-66
2023/11/28 06:39:23;;;;;;;6.65;0.90;;;3.60;99.90;;;;;;5049029;28;20510;-66
2023/11/28 06:41:51;;;;;;;6.30;0.80;;;3.50;99.90;;;;;;5054659;28;20283;-69
2023/11/28 06:44:20;;;;;;;5.68;0.60;;;3.40;99.90;;;;;;5049562;28;20444;-69
2023/11/28 06:46:49;;;;;;;5.70;0.70;;;3.20;99.90;;;;;;5048930;28;20742;-68
2023/11/28 06:49:19;;;;;;;5.70;0.68;;;2.90;99.90;;;;;;5048957;28;20207;-67
2023/11/28 06:51:48;;;;;;;6.40;1.00;;;2.80;99.90;;;;;;5049034;28;20736;-70
2023/11/28 06:54:17;;;;;;;5.80;0.75;;;2.80;99.90;;;;;;5047736;28;20261;-69
2023/11/28 06:56:44;;;;;;;6.45;1.00;;;2.70;99.90;;;;;;5047476;28;20263;-67
2023/11/28 06:59:12;;;;;;;5.75;0.60;;;2.70;99.90;;;;;;5049089;28;20236;-66
2023/11/28 07:01:41;;;;;;;5.93;0.85;;;2.60;99.90;;;;;;5049699;28;20235;-69
2023/11/28 07:04:10;;;;;;;6.15;1.02;;;2.50;99.90;;;;;;5048856;28;20209;-67
2023/11/28 07:06:38;;;;;;;6.40;1.00;;;2.50;99.90;;;;;;5049590;28;20245;-68
2023/11/28 07:09:06;;;;;;;7.13;1.23;;;2.60;99.90;;;;;;5048884;28;20244;-65
2023/11/28 07:11:34;;;;;;;7.40;1.17;;;2.60;99.90;;;;;;5049095;28;20301;-67
2023/11/28 07:14:02;;;;;;;6.72;1.30;;;2.60;99.90;;;;;;5048869;28;20735;-66
2023/11/28 07:16:31;;;;;;;6.70;1.40;;;2.60;99.90;;;;;;5049376;28;20219;-66
2023/11/28 07:18:59;;;;;;;6.22;1.13;;;2.50;99.90;;;;;;5049169;28;20236;-67
2023/11/28 07:21:28;;;;;;;6.60;1.50;;;2.50;99.90;;;;;;5049265;28;20627;-66
2023/11/28 07:23:57;;;;;;;7.03;1.60;;;2.50;99.90;;;;;;5048638;28;20248;-66
2023/11/28 07:26:25;;;;;;;6.53;1.40;;;2.50;99.90;;;;;;5048994;28;20205;-73
2023/11/28 07:28:52;;;;;;;7.40;1.85;;;2.40;99.90;;;;;;5048698;28;20233;-69
2023/11/28 07:31:21;;;;;;;6.53;1.90;;;2.40;99.90;;;;;;5048968;28;20241;-66
2023/11/28 07:33:50;;;;;;;6.70;1.38;;;2.30;99.90;;;;;;5049302;28;20211;-68
2023/11/28 07:36:18;;;;;;;7.20;1.73;;;2.30;99.90;;;;;;5049399;28;20220;-68
2023/11/28 07:38:49;;;;;;;7.90;1.95;;;2.40;99.90;;;;;;5049186;28;20205;-69
2023/11/28 07:41:17;;;;;;;6.80;1.73;;;2.30;99.90;;;;;;5049058;28;20266;-67
2023/11/28 07:43:45;;;;;;;7.82;2.08;;;2.30;99.90;;;;;;5048745;28;20228;-71
2023/11/28 07:46:13;;;;;;;7.15;1.88;;;2.30;99.90;;;;;;5056449;28;20217;-68
2023/11/28 07:48:41;;;;;;;8.07;2.60;;;2.30;99.90;;;;;;5049064;28;20211;-68
2023/11/28 07:51:10;;;;;;;8.98;2.60;;;2.30;99.90;;;;;;5050885;28;20226;-68
2023/11/28 07:53:38;;;;;;;8.30;2.97;;;2.30;99.90;;;;;;5048668;28;20894;-66
2023/11/28 07:56:08;;;;;;;7.45;2.40;;;2.20;99.90;;;;;;5047886;28;20198;-65
2023/11/28 07:58:37;;;;;;;10.35;2.85;;;2.20;99.90;;;;;;5046892;28;20212;-65
2023/11/28 08:01:06;;;;;;;6.80;2.03;;;2.10;99.90;;;;;;5048266;28;20563;-67
2023/11/28 08:03:34;;;;;;;7.25;2.15;;;2.20;99.90;;;;;;5047854;28;20205;-66
2023/11/28 08:06:03;;;;;;;7.00;2.08;;;2.10;99.90;;;;;;5048141;28;20313;-67
2023/11/28 08:08:31;;;;;;;7.05;1.95;;;2.10;99.90;;;;;;5048092;28;20201;-68
2023/11/28 08:10:59;;;;;;;7.00;2.30;;;2.00;99.90;;;;;;5047708;28;20218;-66
2023/11/28 08:13:31;;;;;;;7.07;2.20;;;2.10;99.90;;;;;;5047550;28;20712;-70
2023/11/28 08:15:59;;;;;;;6.65;1.80;;;2.10;99.90;;;;;;5046434;28;20197;-67
2023/11/28 08:18:28;;;;;;;7.07;2.55;;;2.10;99.90;;;;;;5047109;28;20234;-66
2023/11/28 08:21:01;;;;;;;7.45;2.55;;;2.00;99.90;;;;;;5047140;28;20264;-66
2023/11/28 08:23:29;;;;;;;7.38;2.58;;;2.00;99.90;;;;;;5046335;28;20202;-69
2023/11/28 08:25:57;;;;;;;6.85;2.05;;;2.00;99.90;;;;;;5046639;28;20278;-66
2023/11/28 08:28:25;;;;;;;7.05;2.50;;;2.00;99.90;;;;;;5047123;28;20209;-67
2023/11/28 08:30:55;;;;;;;6.80;1.83;;;1.90;99.90;;;;;;5046553;28;20660;-68
2023/11/28 08:33:22;;;;;;;7.80;2.88;;;1.90;99.90;;;;;;5046745;28;20572;-67
2023/11/28 08:35:49;;;;;;;7.63;2.97;;;1.90;99.90;;;;;;5046316;28;20212;-70
2023/11/28 08:38:17;;;;;;;7.43;2.55;;;1.80;99.90;;;;;;5047016;28;20205;-66
2023/11/28 08:40:50;;;;;;;8.00;3.05;;;1.80;99.90;;;;;;5045765;28;20234;-69
2023/11/28 08:43:17;;;;;;;8.35;3.50;;;1.80;99.90;;;;;;5047971;28;20213;-69
2023/11/28 08:45:46;;;;;;;8.20;3.45;;;1.80;99.90;;;;;;5047111;28;20205;-66
2023/11/28 08:48:15;;;;;;;7.50;2.80;;;1.80;99.90;;;;;;5048269;28;20213;-67
2023/11/28 08:50:43;;;;;;;7.60;3.20;;;1.70;99.90;;;;;;5047582;28;20221;-67
2023/11/28 08:53:11;;;;;;;8.05;3.05;;;1.70;99.90;;;;;;5048320;28;20204;-67
2023/11/28 08:55:39;;;;;;;10.90;2.97;;;1.70;99.90;;;;;;5047298;28;20938;-67
2023/11/28 08:58:07;;;;;;;7.15;2.13;;;1.70;99.90;;;;;;5048199;28;20266;-66
2023/11/28 09:00:35;;;;;;;8.50;3.00;;;1.70;99.90;;;;;;5047282;28;20312;-66
2023/11/28 09:03:04;;;;;;;7.63;2.75;;;1.70;99.90;;;;;;5046827;28;20284;-66
2023/11/28 09:05:33;;;;;;;7.15;2.40;;;1.80;99.90;;;;;;5046121;28;20205;-64
2023/11/28 09:08:01;;;;;;;8.43;2.83;;;1.80;99.90;;;;;;5046614;28;20205;-66
2023/11/28 09:10:29;;;;;;;7.63;2.30;;;1.80;99.90;;;;;;5046139;28;20287;-67
2023/11/28 09:12:57;;;;;;;7.63;2.10;;;1.90;99.90;;;;;;5047029;28;20279;-68
2023/11/28 09:15:25;;;;;;;7.22;2.35;;;1.90;99.90;;;;;;5045642;28;20729;-67
2023/11/28 09:17:53;;;;;;;7.30;2.30;;;1.80;99.90;;;;;;5046451;28;20209;-68
2023/11/28 09:20:21;;;;;;;7.10;2.20;;;1.80;99.90;;;;;;5045990;28;20242;-71
2023/11/28 09:22:51;;;;;;;7.15;2.25;;;1.90;99.90;;;;;;5046925;28;20202;-69
2023/11/28 09:25:19;;;;;;;6.75;1.95;;;1.90;99.90;;;;;;5045985;28;20240;-71
2023/11/28 09:27:47;;;;;;;6.65;1.75;;;1.90;99.90;;;;;;5046982;28;20214;-70
2023/11/28 09:30:16;;;;;;;6.78;1.80;;;1.90;99.90;;;;;;5046101;28;20221;-70
2023/11/28 09:32:44;;;;;;;7.63;1.88;;;1.90;99.90;;;;;;5045503;28;20249;-68
2023/11/28 09:35:12;;;;;;;6.85;2.10;;;1.90;99.90;;;;;;5048457;28;20299;-67
2023/11/28 09:37:41;;;;;;;6.70;1.88;;;1.90;99.90;;;;;;5051522;28;20324;-67
2023/11/28 09:40:11;;;;;;;6.55;1.60;;;1.90;99.90;;;;;;5050788;28;20308;-65
2023/11/28 09:42:42;;;;;;;6.45;1.52;;;1.90;99.90;;;;;;5051457;28;20206;-66
2023/11/28 09:45:14;;;;;;;6.80;1.70;;;1.90;99.90;;;;;;5051374;28;20894;-66
2023/11/28 09:47:44;;;;;;;6.47;1.60;;;1.90;99.90;;;;;;5050169;28;20273;-66
2023/11/28 09:50:14;;;;;;;6.50;1.50;;;1.90;99.90;;;;;;5049310;28;20317;-67
2023/11/28 09:52:43;;;;;;;6.70;1.90;;;1.80;99.90;;;;;;5050098;28;20209;-67
2023/11/28 09:55:15;;;;;;;6.80;2.05;;;1.90;99.90;;;;;;5049283;28;20251;-71
2023/11/28 09:57:47;;;;;;;6.10;1.35;;;1.90;99.90;;;;;;5050149;28;20206;-67
2023/11/28 10:00:18;;;;;;;6.97;1.55;;;1.90;99.90;;;;;;5049322;28;20233;-67
2023/11/28 10:02:47;;;;;;;7.22;2.33;;;2.00;99.90;;;;;;5049778;28;20208;-66
2023/11/28 10:05:16;;;;;;;7.00;1.73;;;2.00;99.90;;;;;;5048941;28;20209;-69
2023/11/28 10:07:47;;;;;;;6.45;1.80;;;2.00;99.90;;;;;;5042358;28;20596;-66
2023/11/28 10:10:20;;;;;;;6.90;1.80;;;2.00;99.90;;;;;;5049155;28;20239;-70
2023/11/28 10:12:50;;;;;;;7.20;1.90;;;1.90;99.90;;;;;;5049842;28;20207;-68
2023/11/28 10:15:20;;;;;;;6.30;1.50;;;1.90;99.90;;;;;;5048903;28;20219;-70
2023/11/28 10:17:49;;;;;;;6.47;1.75;;;1.80;99.90;;;;;;5048579;28;20715;-67
2023/11/28 10:20:18;;;;;;;6.60;1.67;;;1.80;99.90;;;;;;5049078;28;20320;-70
2023/11/28 10:22:51;;;;;;;9.20;2.15;;;1.90;99.90;;;;;;5049397;28;20703;-65
2023/11/28 10:25:22;;;;;;;7.30;1.65;;;2.00;99.90;;;;;;5049036;28;20263;-69
2023/11/28 10:27:50;;;;;;;7.93;1.85;;;2.00;99.90;;;;;;5049813;28;20205;-69
2023/11/28 10:30:21;;;;;;;7.85;2.47;;;1.90;99.90;;;;;;5048525;28;20224;-69
2023/11/28 10:32:49;;;;;;;6.25;1.55;;;1.90;99.90;;;;;;5049340;28;20336;-70
2023/11/28 10:35:17;;;;;;;6.75;1.60;;;1.90;99.90;;;;;;5048373;28;20210;-67
2023/11/28 10:37:46;;;;;;;7.03;2.33;;;1.90;99.90;;;;;;5049279;28;20224;-68
2023/11/28 10:40:15;;;;;;;6.70;1.83;;;1.90;99.90;;;;;;5048646;28;20285;-68
2023/11/28 10:42:45;;;;;;;6.65;2.10;;;1.80;99.90;;;;;;5049851;28;20221;-67
2023/11/28 10:45:15;;;;;;;7.10;1.95;;;1.80;99.90;;;;;;5048332;28;20211;-66
2023/11/28 10:47:44;;;;;;;6.50;2.25;;;1.70;99.90;;;;;;5047499;28;20291;-65
2023/11/28 10:50:13;;;;;;;7.10;2.40;;;1.70;99.90;;;;;;5048428;28;20227;-66
2023/11/28 10:52:45;;;;;;;7.63;2.47;;;1.70;99.90;;;;;;5048812;28;20210;-66
2023/11/28 10:55:18;;;;;;;7.35;2.67;;;1.80;99.90;;;;;;5048545;28;20205;-67
2023/11/28 10:57:55;;;;;;;7.00;2.25;;;1.80;99.90;;;;;;5048920;28;20724;-70
2023/11/28 11:00:26;;;;;;;7.00;2.30;;;1.70;99.90;;;;;;5048356;28;20759;-67
2023/11/28 11:02:55;;;;;;;7.10;2.25;;;1.70;99.90;;;;;;5048983;28;20743;-66
2023/11/28 11:05:25;;;;;;;7.05;2.47;;;1.70;99.90;;;;;;5048361;28;20212;-67
2023/11/28 11:07:54;;;;;;;7.20;2.40;;;1.70;99.90;;;;;;5049023;28;20661;-67
2023/11/28 11:10:22;;;;;;;7.20;2.40;;;1.70;99.90;;;;;;5048916;28;20613;-68
2023/11/28 11:12:57;;;;;;;7.57;3.00;;;1.60;99.90;;;;;;5049265;28;20209;-68
2023/11/28 11:15:30;;;;;;;8.13;2.40;;;1.60;99.90;;;;;;5047754;28;20228;-67
2023/11/28 11:18:08;;;;;;;8.00;2.92;;;1.60;99.90;;;;;;5048938;28;20209;-70
2023/11/28 11:20:39;;;;;;;7.50;2.45;;;1.50;99.90;;;;;;5048893;28;20220;-67
2023/11/28 11:23:09;;;;;;;7.65;2.67;;;1.50;99.90;;;;;;5049438;28;20622;-68
2023/11/28 11:25:41;;;;;;;7.38;2.67;;;1.50;99.90;;;;;;5049076;28;20228;-66
2023/11/28 11:28:11;;;;;;;8.25;3.15;;;1.50;99.90;;;;;;5049348;28;20241;-68
2023/11/28 11:30:39;;;;;;;7.50;2.90;;;1.50;99.90;;;;;;5048772;28;20244;-67
2023/11/28 11:33:08;;;;;;;7.43;2.95;;;1.50;99.90;;;;;;5049381;28;20212;-66
2023/11/28 11:36:15;;;;;;;7.10;2.72;;;1.60;99.90;;;;;;5048829;28;20625;-66
2023/11/28 11:38:46;;;;;;;8.40;2.90;;;1.50;99.90;;;;;;5027627;28;20235;-66
2023/11/28 11:41:16;;;;;;;8.32;3.38;;;1.60;99.90;;;;;;5049338;28;20331;-65
2023/11/28 11:43:46;;;;;;;8.70;2.85;;;1.50;99.90;;;;;;5049195;28;20256;-68
2023/11/28 11:46:16;;;;;;;7.30;2.80;;;1.50;99.90;;;;;;5048538;28;20210;-66
2023/11/28 11:48:45;;;;;;;7.22;2.65;;;1.60;99.90;;;;;;5048525;28;20290;-66
2023/11/28 11:51:13;;;;;;;7.85;2.75;;;1.60;99.90;;;;;;5048979;28;20233;-68
2023/11/28 11:53:42;;;;;;;7.97;3.20;;;1.50;99.90;;;;;;5048640;28;20213;-66
2023/11/28 11:56:11;;;;;;;7.40;3.13;;;1.60;99.90;;;;;;5048461;28;20569;-66
2023/11/28 11:58:39;;;;;;;7.78;3.58;;;1.70;99.90;;;;;;5048235;28;20296;-66
2023/11/28 12:01:08;;;;;;;8.05;3.22;;;1.70;99.90;;;;;;5048976;28;20313;-66
2023/11/28 12:03:36;;;;;;;8.05;3.30;;;1.80;99.90;;;;;;5048400;28;20225;-64
2023/11/28 12:06:06;;;;;;;8.18;3.15;;;1.80;99.90;;;;;;5048381;28;20201;-65
2023/11/28 12:08:37;;;;;;;8.20;3.30;;;1.70;99.90;;;;;;5048216;28;20229;-67
2023/11/28 12:11:08;;;;;;;8.75;3.05;;;1.70;99.90;;;;;;5048867;28;20248;-66
2023/11/28 12:13:37;;;;;;;8.75;3.05;;;1.70;99.90;;;;;;5049245;28;20201;-65
2023/11/28 12:16:09;;;;;;;8.10;3.03;;;1.70;99.90;;;;;;5047862;28;20204;-63
2023/11/28 12:18:37;;;;;;;8.30;2.80;;;1.70;99.90;;;;;;5048214;28;20205;-67
2023/11/28 12:21:05;;;;;;;8.65;3.15;;;1.70;99.90;;;;;;5048313;28;20233;-67
2023/11/28 12:23:33;;;;;;;8.02;3.45;;;1.70;99.90;;;;;;5048028;28;20703;-67
2023/11/28 12:26:02;;;;;;;9.57;3.10;;;1.60;99.90;;;;;;5048002;28;20232;-68
2023/11/28 12:28:31;;;;;;;8.27;2.45;;;1.60;99.90;;;;;;5047987;28;20217;-66
2023/11/28 12:30:59;;;;;;;7.40;2.70;;;1.70;99.90;;;;;;5048017;28;20405;-69
2023/11/28 12:33:32;;;;;;;8.23;3.20;;;1.70;99.90;;;;;;5046963;28;20308;-70
2023/11/28 12:36:01;;;;;;;8.10;3.15;;;1.70;99.90;;;;;;5046428;28;20592;-67
2023/11/28 12:38:29;;;;;;;9.05;3.35;;;1.60;99.90;;;;;;5046740;28;20254;-70
2023/11/28 12:40:57;;;;;;;7.88;3.40;;;1.70;99.90;;;;;;5046964;28;20244;-69
2023/11/28 12:43:37;;;;;;;9.30;3.65;;;1.70;99.90;;;;;;5046595;28;20225;-69
2023/11/28 12:46:05;;;;;;;10.70;4.22;;;1.60;99.90;;;;;;5046999;28;20594;-68
2023/11/28 12:48:35;;;;;;;8.60;3.33;;;1.70;99.90;;;;;;5046467;28;20212;-67
2023/11/28 12:51:03;;;;;;;9.75;4.40;;;1.70;99.90;;;;;;5046826;28;20667;-70
2023/11/28 12:53:33;;;;;;;10.07;4.80;;;1.60;99.90;;;;;;5046834;28;20209;-66
2023/11/28 12:56:01;;;;;;;10.10;4.78;;;1.70;99.90;;;;;;5046179;28;20193;-65
2023/11/28 12:58:29;;;;;;;10.48;4.45;;;1.70;99.90;;;;;;5046541;28;20828;-66
2023/11/28 13:00:57;;;;;;;9.80;4.78;;;1.60;99.90;;;;;;5046357;28;20233;-67
2023/11/28 13:03:26;;;;;;;9.85;4.50;;;1.60;99.90;;;;;;5047663;28;20221;-66
2023/11/28 13:05:55;;;;;;;10.23;5.55;;;1.60;99.90;;;;;;5046929;28;20254;-68